sensor_id;sensor_type;location;lat;lon;timestamp;pressure;altitude;pressure_sealevel;temperature;humidity
12799;BME280;19250;42.646;26.980;2022-12-10T00:01:35;98534.56;;;13.52;100.00
12799;BME280;19250;42.646;26.980;2022-12-10T00:04:03;98527.66;;;13.43;100.00
12799;BME280;19250;42.646;26.980;2022-12-10T00:06:34;98525.72;;;13.51;100.00
12799;BME280;19250;42.646;26.980;2022-12-10T00:09:02;98526.22;;;13.26;100.00
12799;BME280;19250;42.646;26.980;2022-12-10T00:11:30;98513.41;;;13.57;100.00
12799;BME280;19250;42.646;26.980;2022-12-10T00:13:58;98521.19;;;13.73;100.00
12799;BME280;19250;42.646;26.980;2022-12-10T00:16:27;98518.94;;;14.34;100.00
12799;BME280;19250;42.646;26.980;2022-12-10T00:18:54;98531.28;;;14.35;100.00
12799;BME280;19250;42.646;26.980;2022-12-10T00:21:23;98534.59;;;14.58;100.00
12799;BME280;19250;42.646;26.980;2022-12-10T00:23:52;98529.69;;;14.68;100.00
12799;BME280;19250;42.646;26.980;2022-12-10T00:26:21;98534.75;;;14.84;100.00
12799;BME280;19250;42.646;26.980;2022-12-10T00:28:50;98535.31;;;14.73;100.00
12799;BME280;19250;42.646;26.980;2022-12-10T00:31:18;98538.16;;;14.71;100.00
12799;BME280;19250;42.646;26.980;2022-12-10T00:33:46;98532.34;;;14.96;100.00
12799;BME280;19250;42.646;26.980;2022-12-10T00:36:16;98539.88;;;14.79;100.00
12799;BME280;19250;42.646;26.980;2022-12-10T00:38:45;98535.16;;;14.53;100.00
12799;BME280;19250;42.646;26.980;2022-12-10T00:41:14;98504.97;;;14.24;100.00
12799;BME280;19250;42.646;26.980;2022-12-10T00:43:43;98526.66;;;14.50;100.00
12799;BME280;19250;42.646;26.980;2022-12-10T00:46:11;98536.41;;;13.87;100.00
12799;BME280;19250;42.646;26.980;2022-12-10T00:48:38;98528.50;;;14.00;100.00
12799;BME280;19250;42.646;26.980;2022-12-10T00:51:07;98540.41;;;14.19;100.00
12799;BME280;19250;42.646;26.980;2022-12-10T00:53:36;98540.47;;;13.83;100.00
12799;BME280;19250;42.646;26.980;2022-12-10T00:56:04;98541.75;;;13.66;100.00
12799;BME280;19250;42.646;26.980;2022-12-10T00:58:34;98531.81;;;13.81;100.00
12799;BME280;19250;42.646;26.980;2022-12-10T01:01:10;98539.03;;;13.45;100.00
12799;BME280;19250;42.646;26.980;2022-12-10T01:03:38;98521.88;;;13.25;100.00
12799;BME280;19250;42.646;26.980;2022-12-10T01:06:10;98521.59;;;12.90;100.00
12799;BME280;19250;42.646;26.980;2022-12-10T01:08:38;98519.84;;;12.83;100.00
12799;BME280;19250;42.646;26.980;2022-12-10T01:11:05;98504.72;;;12.90;100.00
12799;BME280;19250;42.646;26.980;2022-12-10T01:13:35;98479.91;;;12.37;100.00
12799;BME280;19250;42.646;26.980;2022-12-10T01:16:03;98511.16;;;12.66;100.00
12799;BME280;19250;42.646;26.980;2022-12-10T01:18:30;98495.31;;;12.94;100.00
12799;BME280;19250;42.646;26.980;2022-12-10T01:21:01;98502.16;;;12.96;100.00
12799;BME280;19250;42.646;26.980;2022-12-10T01:23:30;98499.66;;;13.09;100.00
12799;BME280;19250;42.646;26.980;2022-12-10T01:25:59;98499.19;;;13.56;100.00
12799;BME280;19250;42.646;26.980;2022-12-10T01:28:29;98495.03;;;13.18;100.00
12799;BME280;19250;42.646;26.980;2022-12-10T01:31:01;98500.00;;;13.36;100.00
12799;BME280;19250;42.646;26.980;2022-12-10T01:33:29;98496.50;;;13.56;100.00
12799;BME280;19250;42.646;26.980;2022-12-10T01:35:57;98496.03;;;13.32;100.00
12799;BME280;19250;42.646;26.980;2022-12-10T01:38:28;98490.25;;;13.49;100.00
12799;BME280;19250;42.646;26.980;2022-12-10T01:40:55;98487.41;;;13.93;100.00
12799;BME280;19250;42.646;26.980;2022-12-10T01:43:22;98494.53;;;13.65;100.00
12799;BME280;19250;42.646;26.980;2022-12-10T01:45:49;98483.38;;;13.83;100.00
12799;BME280;19250;42.646;26.980;2022-12-10T01:48:18;98482.66;;;13.95;100.00
12799;BME280;19250;42.646;26.980;2022-12-10T01:50:45;98477.75;;;13.99;100.00
12799;BME280;19250;42.646;26.980;2022-12-10T01:53:13;98472.41;;;13.78;100.00
12799;BME280;19250;42.646;26.980;2022-12-10T01:55:45;98472.72;;;13.68;100.00
12799;BME280;19250;42.646;26.980;2022-12-10T01:58:14;98473.63;;;13.75;100.00
12799;BME280;19250;42.646;26.980;2022-12-10T02:00:50;98471.38;;;14.00;100.00
12799;BME280;19250;42.646;26.980;2022-12-10T02:03:25;98474.34;;;14.33;100.00
12799;BME280;19250;42.646;26.980;2022-12-10T02:06:02;98475.72;;;14.29;100.00
12799;BME280;19250;42.646;26.980;2022-12-10T02:08:37;98480.28;;;14.56;100.00
12799;BME280;19250;42.646;26.980;2022-12-10T02:11:14;98482.88;;;14.43;100.00
12799;BME280;19250;42.646;26.980;2022-12-10T02:13:46;98449.63;;;14.16;100.00
12799;BME280;19250;42.646;26.980;2022-12-10T02:16:21;98482.22;;;14.68;100.00
12799;BME280;19250;42.646;26.980;2022-12-10T02:18:58;98414.75;;;14.09;100.00
12799;BME280;19250;42.646;26.980;2022-12-10T02:21:28;98470.91;;;14.73;100.00
12799;BME280;19250;42.646;26.980;2022-12-10T02:23:59;98481.69;;;14.80;100.00
12799;BME280;19250;42.646;26.980;2022-12-10T02:26:33;98476.03;;;14.12;100.00
12799;BME280;19250;42.646;26.980;2022-12-10T02:29:11;98470.59;;;14.55;100.00
12799;BME280;19250;42.646;26.980;2022-12-10T02:31:41;98469.13;;;14.31;100.00
12799;BME280;19250;42.646;26.980;2022-12-10T02:34:10;98470.47;;;14.69;100.00
12799;BME280;19250;42.646;26.980;2022-12-10T02:36:42;98466.63;;;14.51;100.00
12799;BME280;19250;42.646;26.980;2022-12-10T02:39:13;98464.16;;;14.90;100.00
12799;BME280;19250;42.646;26.980;2022-12-10T02:41:45;98454.59;;;14.75;100.00
12799;BME280;19250;42.646;26.980;2022-12-10T02:44:17;98458.56;;;14.51;100.00
12799;BME280;19250;42.646;26.980;2022-12-10T02:46:47;98470.66;;;14.68;100.00
12799;BME280;19250;42.646;26.980;2022-12-10T02:49:16;98473.00;;;14.01;100.00
12799;BME280;19250;42.646;26.980;2022-12-10T02:51:44;98464.66;;;13.89;100.00
12799;BME280;19250;42.646;26.980;2022-12-10T02:54:35;98473.06;;;14.07;100.00
12799;BME280;19250;42.646;26.980;2022-12-10T02:57:18;98465.28;;;14.34;100.00
12799;BME280;19250;42.646;26.980;2022-12-10T03:00:04;98425.31;;;14.45;100.00
12799;BME280;19250;42.646;26.980;2022-12-10T03:02:39;98468.91;;;14.54;100.00
12799;BME280;19250;42.646;26.980;2022-12-10T03:05:15;98462.00;;;14.38;100.00
12799;BME280;19250;42.646;26.980;2022-12-10T03:07:47;98445.28;;;13.87;100.00
12799;BME280;19250;42.646;26.980;2022-12-10T03:10:22;98437.56;;;13.35;100.00
12799;BME280;19250;42.646;26.980;2022-12-10T03:12:55;98434.38;;;13.25;100.00
12799;BME280;19250;42.646;26.980;2022-12-10T03:15:26;98434.59;;;13.09;100.00
12799;BME280;19250;42.646;26.980;2022-12-10T03:17:55;98438.03;;;13.24;100.00
12799;BME280;19250;42.646;26.980;2022-12-10T03:20:24;98419.81;;;12.98;100.00
12799;BME280;19250;42.646;26.980;2022-12-10T03:22:52;98436.78;;;13.20;100.00
12799;BME280;19250;42.646;26.980;2022-12-10T03:25:24;98447.97;;;13.09;100.00
12799;BME280;19250;42.646;26.980;2022-12-10T03:27:54;98434.03;;;13.14;100.00
12799;BME280;19250;42.646;26.980;2022-12-10T03:30:22;98434.97;;;13.42;100.00
12799;BME280;19250;42.646;26.980;2022-12-10T03:32:52;98431.34;;;13.14;100.00
12799;BME280;19250;42.646;26.980;2022-12-10T03:35:21;98426.38;;;13.11;100.00
12799;BME280;19250;42.646;26.980;2022-12-10T03:37:50;98417.09;;;13.28;100.00
12799;BME280;19250;42.646;26.980;2022-12-10T03:40:20;98417.38;;;13.18;100.00
12799;BME280;19250;42.646;26.980;2022-12-10T03:42:48;98420.28;;;13.02;100.00
12799;BME280;19250;42.646;26.980;2022-12-10T03:45:15;98415.22;;;12.92;100.00
12799;BME280;19250;42.646;26.980;2022-12-10T03:47:43;98419.41;;;12.80;100.00
12799;BME280;19250;42.646;26.980;2022-12-10T03:50:12;98420.03;;;12.82;100.00
12799;BME280;19250;42.646;26.980;2022-12-10T03:52:39;98424.84;;;12.72;100.00
12799;BME280;19250;42.646;26.980;2022-12-10T03:55:07;98418.59;;;12.50;100.00
12799;BME280;19250;42.646;26.980;2022-12-10T03:57:35;98424.31;;;12.62;100.00
12799;BME280;19250;42.646;26.980;2022-12-10T04:00:03;98421.16;;;12.59;100.00
12799;BME280;19250;42.646;26.980;2022-12-10T04:02:30;98415.34;;;12.55;100.00
12799;BME280;19250;42.646;26.980;2022-12-10T04:04:57;98420.72;;;12.55;100.00
12799;BME280;19250;42.646;26.980;2022-12-10T04:07:26;98417.56;;;12.66;100.00
12799;BME280;19250;42.646;26.980;2022-12-10T04:09:53;98408.81;;;12.28;100.00
12799;BME280;19250;42.646;26.980;2022-12-10T04:12:21;98401.91;;;12.34;100.00
12799;BME280;19250;42.646;26.980;2022-12-10T04:14:48;98398.22;;;12.35;100.00
12799;BME280;19250;42.646;26.980;2022-12-10T04:17:32;98400.34;;;12.25;100.00
12799;BME280;19250;42.646;26.980;2022-12-10T04:20:00;98403.47;;;12.28;100.00
12799;BME280;19250;42.646;26.980;2022-12-10T04:22:29;98402.44;;;12.29;100.00
12799;BME280;19250;42.646;26.980;2022-12-10T04:25:13;98397.94;;;12.30;100.00
12799;BME280;19250;42.646;26.980;2022-12-10T04:27:59;98392.78;;;12.28;100.00
12799;BME280;19250;42.646;26.980;2022-12-10T04:30:26;98394.00;;;12.26;100.00
12799;BME280;19250;42.646;26.980;2022-12-10T04:32:53;98392.88;;;12.35;100.00
12799;BME280;19250;42.646;26.980;2022-12-10T04:35:20;98390.19;;;12.49;100.00
12799;BME280;19250;42.646;26.980;2022-12-10T04:37:49;98395.72;;;12.63;100.00
12799;BME280;19250;42.646;26.980;2022-12-10T04:40:16;98389.31;;;12.78;100.00
12799;BME280;19250;42.646;26.980;2022-12-10T04:42:43;98397.84;;;13.18;100.00
12799;BME280;19250;42.646;26.980;2022-12-10T04:45:11;98394.75;;;12.85;100.00
12799;BME280;19250;42.646;26.980;2022-12-10T04:47:38;98409.47;;;13.10;100.00
12799;BME280;19250;42.646;26.980;2022-12-10T04:50:06;98413.69;;;12.54;100.00
12799;BME280;19250;42.646;26.980;2022-12-10T04:52:33;98388.72;;;12.47;100.00
12799;BME280;19250;42.646;26.980;2022-12-10T04:55:02;98407.72;;;12.23;100.00
12799;BME280;19250;42.646;26.980;2022-12-10T04:57:29;98408.00;;;12.13;100.00
12799;BME280;19250;42.646;26.980;2022-12-10T04:59:56;98410.91;;;12.04;100.00
12799;BME280;19250;42.646;26.980;2022-12-10T05:02:24;98410.28;;;12.31;100.00
12799;BME280;19250;42.646;26.980;2022-12-10T05:04:51;98390.19;;;12.64;100.00
12799;BME280;19250;42.646;26.980;2022-12-10T05:07:18;98413.47;;;13.35;100.00
12799;BME280;19250;42.646;26.980;2022-12-10T05:09:46;98411.72;;;13.28;100.00
12799;BME280;19250;42.646;26.980;2022-12-10T05:12:14;98410.00;;;13.20;100.00
12799;BME280;19250;42.646;26.980;2022-12-10T05:14:42;98410.03;;;13.05;100.00
12799;BME280;19250;42.646;26.980;2022-12-10T05:17:09;98405.91;;;13.24;100.00
12799;BME280;19250;42.646;26.980;2022-12-10T05:19:36;98401.16;;;13.41;100.00
12799;BME280;19250;42.646;26.980;2022-12-10T05:22:03;98415.19;;;13.43;100.00
12799;BME280;19250;42.646;26.980;2022-12-10T05:24:48;98420.91;;;13.40;100.00
12799;BME280;19250;42.646;26.980;2022-12-10T05:27:16;98412.19;;;13.31;100.00
12799;BME280;19250;42.646;26.980;2022-12-10T05:29:43;98416.22;;;13.42;100.00
12799;BME280;19250;42.646;26.980;2022-12-10T05:32:11;98412.81;;;13.33;100.00
12799;BME280;19250;42.646;26.980;2022-12-10T05:34:38;98409.19;;;13.41;100.00
12799;BME280;19250;42.646;26.980;2022-12-10T05:37:05;98408.53;;;13.03;100.00
12799;BME280;19250;42.646;26.980;2022-12-10T05:39:33;98414.47;;;13.34;100.00
12799;BME280;19250;42.646;26.980;2022-12-10T05:42:00;98416.78;;;13.01;100.00
12799;BME280;19250;42.646;26.980;2022-12-10T05:44:29;98397.34;;;12.93;100.00
12799;BME280;19250;42.646;26.980;2022-12-10T05:46:56;98411.91;;;12.76;100.00
12799;BME280;19250;42.646;26.980;2022-12-10T05:49:23;98420.66;;;12.84;100.00
12799;BME280;19250;42.646;26.980;2022-12-10T05:51:50;98413.16;;;13.09;100.00
12799;BME280;19250;42.646;26.980;2022-12-10T05:54:21;98404.97;;;13.11;100.00
12799;BME280;19250;42.646;26.980;2022-12-10T05:56:48;98412.66;;;12.70;100.00
12799;BME280;19250;42.646;26.980;2022-12-10T05:59:15;98403.84;;;12.40;100.00
12799;BME280;19250;42.646;26.980;2022-12-10T06:01:44;98395.16;;;12.23;100.00
12799;BME280;19250;42.646;26.980;2022-12-10T06:04:12;98364.66;;;12.18;100.00
12799;BME280;19250;42.646;26.980;2022-12-10T06:06:39;98372.97;;;12.23;100.00
12799;BME280;19250;42.646;26.980;2022-12-10T06:09:11;98387.53;;;12.35;100.00
12799;BME280;19250;42.646;26.980;2022-12-10T06:11:38;98368.59;;;12.51;100.00
12799;BME280;19250;42.646;26.980;2022-12-10T06:14:06;98392.34;;;12.75;100.00
12799;BME280;19250;42.646;26.980;2022-12-10T06:16:33;98393.75;;;12.86;100.00
12799;BME280;19250;42.646;26.980;2022-12-10T06:19:02;98402.81;;;13.06;100.00
12799;BME280;19250;42.646;26.980;2022-12-10T06:21:29;98404.91;;;13.46;100.00
12799;BME280;19250;42.646;26.980;2022-12-10T06:23:56;98414.16;;;13.23;100.00
12799;BME280;19250;42.646;26.980;2022-12-10T06:26:25;98409.88;;;13.49;100.00
12799;BME280;19250;42.646;26.980;2022-12-10T06:28:53;98407.66;;;13.74;100.00
12799;BME280;19250;42.646;26.980;2022-12-10T06:31:21;98404.97;;;13.53;100.00
12799;BME280;19250;42.646;26.980;2022-12-10T06:33:48;98406.72;;;13.60;100.00
12799;BME280;19250;42.646;26.980;2022-12-10T06:36:18;98412.25;;;13.38;100.00
12799;BME280;19250;42.646;26.980;2022-12-10T06:38:45;98403.63;;;13.42;100.00
12799;BME280;19250;42.646;26.980;2022-12-10T06:41:17;98406.25;;;14.06;100.00
12799;BME280;19250;42.646;26.980;2022-12-10T06:43:46;98410.97;;;14.04;100.00
12799;BME280;19250;42.646;26.980;2022-12-10T06:46:15;98384.16;;;13.76;100.00
12799;BME280;19250;42.646;26.980;2022-12-10T06:48:43;98349.00;;;14.20;100.00
12799;BME280;19250;42.646;26.980;2022-12-10T06:51:12;98420.50;;;14.68;100.00
12799;BME280;19250;42.646;26.980;2022-12-10T06:53:41;98413.25;;;14.07;100.00
12799;BME280;19250;42.646;26.980;2022-12-10T06:56:11;98418.06;;;14.39;100.00
12799;BME280;19250;42.646;26.980;2022-12-10T06:58:39;98395.09;;;14.64;100.00
12799;BME280;19250;42.646;26.980;2022-12-10T07:01:09;98418.38;;;14.57;100.00
12799;BME280;19250;42.646;26.980;2022-12-10T07:03:37;98414.78;;;14.44;100.00
12799;BME280;19250;42.646;26.980;2022-12-10T07:06:06;98408.66;;;14.29;100.00
12799;BME280;19250;42.646;26.980;2022-12-10T07:08:34;98406.88;;;14.70;100.00
12799;BME280;19250;42.646;26.980;2022-12-10T07:11:04;98411.38;;;15.04;100.00
12799;BME280;19250;42.646;26.980;2022-12-10T07:13:32;98413.53;;;15.35;100.00
12799;BME280;19250;42.646;26.980;2022-12-10T07:16:00;98414.59;;;15.47;100.00
12799;BME280;19250;42.646;26.980;2022-12-10T07:18:27;98419.59;;;15.56;100.00
12799;BME280;19250;42.646;26.980;2022-12-10T07:20:54;98421.47;;;15.95;100.00
12799;BME280;19250;42.646;26.980;2022-12-10T07:23:22;98416.91;;;16.22;100.00
12799;BME280;19250;42.646;26.980;2022-12-10T07:25:49;98415.22;;;16.27;100.00
12799;BME280;19250;42.646;26.980;2022-12-10T07:28:18;98420.78;;;16.46;100.00
12799;BME280;19250;42.646;26.980;2022-12-10T07:30:45;98409.84;;;16.27;100.00
12799;BME280;19250;42.646;26.980;2022-12-10T07:33:12;98418.94;;;16.40;100.00
12799;BME280;19250;42.646;26.980;2022-12-10T07:35:39;98416.06;;;15.75;100.00
12799;BME280;19250;42.646;26.980;2022-12-10T07:38:07;98406.78;;;15.85;100.00
12799;BME280;19250;42.646;26.980;2022-12-10T07:40:34;98402.84;;;16.07;100.00
12799;BME280;19250;42.646;26.980;2022-12-10T07:43:01;98398.91;;;16.22;100.00
12799;BME280;19250;42.646;26.980;2022-12-10T07:45:30;98387.06;;;16.37;100.00
12799;BME280;19250;42.646;26.980;2022-12-10T07:47:57;98386.28;;;16.10;100.00
12799;BME280;19250;42.646;26.980;2022-12-10T07:50:24;98394.47;;;16.67;100.00
12799;BME280;19250;42.646;26.980;2022-12-10T07:52:52;98399.41;;;16.83;100.00
12799;BME280;19250;42.646;26.980;2022-12-10T07:55:19;98402.13;;;16.64;100.00
12799;BME280;19250;42.646;26.980;2022-12-10T07:57:46;98399.81;;;16.80;100.00
12799;BME280;19250;42.646;26.980;2022-12-10T08:00:14;98397.72;;;16.82;100.00
12799;BME280;19250;42.646;26.980;2022-12-10T08:02:42;98400.88;;;16.73;100.00
12799;BME280;19250;42.646;26.980;2022-12-10T08:05:10;98395.38;;;17.06;100.00
12799;BME280;19250;42.646;26.980;2022-12-10T08:07:37;98393.47;;;17.44;100.00
12799;BME280;19250;42.646;26.980;2022-12-10T08:10:05;98394.50;;;16.61;100.00
12799;BME280;19250;42.646;26.980;2022-12-10T08:12:32;98388.66;;;17.53;100.00
12799;BME280;19250;42.646;26.980;2022-12-10T08:14:59;98385.63;;;17.74;100.00
12799;BME280;19250;42.646;26.980;2022-12-10T08:17:28;98374.13;;;17.22;100.00
12799;BME280;19250;42.646;26.980;2022-12-10T08:19:56;98392.78;;;18.11;100.00
12799;BME280;19250;42.646;26.980;2022-12-10T08:22:24;98397.78;;;18.08;100.00
12799;BME280;19250;42.646;26.980;2022-12-10T08:24:51;98400.50;;;18.51;100.00
12799;BME280;19250;42.646;26.980;2022-12-10T08:27:18;98400.38;;;18.21;100.00
12799;BME280;19250;42.646;26.980;2022-12-10T08:29:46;98394.00;;;18.15;100.00
12799;BME280;19250;42.646;26.980;2022-12-10T08:32:13;98394.16;;;17.95;100.00
12799;BME280;19250;42.646;26.980;2022-12-10T08:34:40;98391.06;;;18.60;100.00
12799;BME280;19250;42.646;26.980;2022-12-10T08:37:09;98388.94;;;18.25;100.00
12799;BME280;19250;42.646;26.980;2022-12-10T08:39:36;98384.22;;;18.39;100.00
12799;BME280;19250;42.646;26.980;2022-12-10T08:42:03;98374.78;;;17.49;100.00
12799;BME280;19250;42.646;26.980;2022-12-10T08:44:30;98366.63;;;16.93;100.00
12799;BME280;19250;42.646;26.980;2022-12-10T08:46:58;98366.56;;;17.06;100.00
12799;BME280;19250;42.646;26.980;2022-12-10T08:49:25;98352.16;;;16.88;100.00
12799;BME280;19250;42.646;26.980;2022-12-10T08:51:52;98349.88;;;17.22;100.00
12799;BME280;19250;42.646;26.980;2022-12-10T08:54:21;98353.38;;;17.61;100.00
12799;BME280;19250;42.646;26.980;2022-12-10T08:56:48;98353.97;;;17.63;100.00
12799;BME280;19250;42.646;26.980;2022-12-10T08:59:15;98360.06;;;16.76;100.00
12799;BME280;19250;42.646;26.980;2022-12-10T09:01:43;98352.91;;;16.57;100.00
12799;BME280;19250;42.646;26.980;2022-12-10T09:04:10;98335.78;;;16.82;100.00
12799;BME280;19250;42.646;26.980;2022-12-10T09:06:38;98331.06;;;16.78;100.00
12799;BME280;19250;42.646;26.980;2022-12-10T09:09:08;98325.69;;;16.78;100.00
12799;BME280;19250;42.646;26.980;2022-12-10T09:11:37;98335.63;;;17.15;100.00
12799;BME280;19250;42.646;26.980;2022-12-10T09:14:04;98327.72;;;17.20;100.00
12799;BME280;19250;42.646;26.980;2022-12-10T09:16:33;98287.63;;;16.68;100.00
12799;BME280;19250;42.646;26.980;2022-12-10T09:19:01;98315.03;;;17.27;100.00
12799;BME280;19250;42.646;26.980;2022-12-10T09:21:29;98305.28;;;16.95;100.00
12799;BME280;19250;42.646;26.980;2022-12-10T09:23:57;98286.16;;;17.03;100.00
12799;BME280;19250;42.646;26.980;2022-12-10T09:26:25;98297.41;;;17.25;100.00
12799;BME280;19250;42.646;26.980;2022-12-10T09:28:53;98308.47;;;17.17;100.00
12799;BME280;19250;42.646;26.980;2022-12-10T09:31:23;98295.50;;;16.69;100.00
12799;BME280;19250;42.646;26.980;2022-12-10T09:33:51;98295.38;;;16.89;100.00
12799;BME280;19250;42.646;26.980;2022-12-10T09:36:20;98292.03;;;17.50;100.00
12799;BME280;19250;42.646;26.980;2022-12-10T09:38:48;98291.25;;;17.92;100.00
12799;BME280;19250;42.646;26.980;2022-12-10T09:41:29;98280.13;;;17.88;100.00
12799;BME280;19250;42.646;26.980;2022-12-10T09:44:03;98281.13;;;18.12;100.00
12799;BME280;19250;42.646;26.980;2022-12-10T09:46:41;98280.13;;;18.61;100.00
12799;BME280;19250;42.646;26.980;2022-12-10T09:49:20;98279.72;;;18.76;100.00
12799;BME280;19250;42.646;26.980;2022-12-10T09:51:54;98272.81;;;19.10;100.00
12799;BME280;19250;42.646;26.980;2022-12-10T09:54:25;98268.50;;;19.20;100.00
12799;BME280;19250;42.646;26.980;2022-12-10T09:56:55;98259.94;;;19.35;100.00
12799;BME280;19250;42.646;26.980;2022-12-10T09:59:29;98256.34;;;19.76;100.00
12799;BME280;19250;42.646;26.980;2022-12-10T10:02:03;98237.00;;;20.19;100.00
12799;BME280;19250;42.646;26.980;2022-12-10T10:04:36;98257.06;;;20.86;100.00
12799;BME280;19250;42.646;26.980;2022-12-10T10:07:05;98257.53;;;20.94;100.00
12799;BME280;19250;42.646;26.980;2022-12-10T10:09:36;98254.66;;;21.46;100.00
12799;BME280;19250;42.646;26.980;2022-12-10T10:12:10;98252.41;;;22.31;100.00
12799;BME280;19250;42.646;26.980;2022-12-10T10:14:41;98257.41;;;23.09;99.46
12799;BME280;19250;42.646;26.980;2022-12-10T10:17:12;98249.38;;;23.24;94.62
12799;BME280;19250;42.646;26.980;2022-12-10T10:19:43;98230.91;;;22.51;99.23
12799;BME280;19250;42.646;26.980;2022-12-10T10:22:11;98243.00;;;21.00;100.00
12799;BME280;19250;42.646;26.980;2022-12-10T10:24:41;98230.22;;;20.56;100.00
12799;BME280;19250;42.646;26.980;2022-12-10T10:27:13;98227.25;;;21.14;100.00
12799;BME280;19250;42.646;26.980;2022-12-10T10:29:43;98216.59;;;21.57;100.00
12799;BME280;19250;42.646;26.980;2022-12-10T10:32:15;98210.69;;;21.27;100.00
12799;BME280;19250;42.646;26.980;2022-12-10T10:34:43;98190.06;;;21.43;100.00
12799;BME280;19250;42.646;26.980;2022-12-10T10:37:20;98208.53;;;20.84;100.00
12799;BME280;19250;42.646;26.980;2022-12-10T10:39:50;98194.47;;;19.91;100.00
12799;BME280;19250;42.646;26.980;2022-12-10T10:42:35;98164.34;;;19.99;100.00
12799;BME280;19250;42.646;26.980;2022-12-10T10:45:06;98184.44;;;20.54;100.00
12799;BME280;19250;42.646;26.980;2022-12-10T10:48:04;98193.91;;;21.13;100.00
12799;BME280;19250;42.646;26.980;2022-12-10T10:50:37;98188.47;;;21.47;100.00
12799;BME280;19250;42.646;26.980;2022-12-10T10:53:23;98181.91;;;21.43;100.00
12799;BME280;19250;42.646;26.980;2022-12-10T10:55:53;98186.25;;;22.42;100.00
12799;BME280;19250;42.646;26.980;2022-12-10T10:58:23;98167.47;;;22.62;100.00
12799;BME280;19250;42.646;26.980;2022-12-10T11:01:00;98172.16;;;22.67;100.00
12799;BME280;19250;42.646;26.980;2022-12-10T11:03:29;98163.03;;;23.89;93.04
12799;BME280;19250;42.646;26.980;2022-12-10T11:05:58;98166.50;;;22.25;100.00
12799;BME280;19250;42.646;26.980;2022-12-10T11:08:30;98163.94;;;20.75;100.00
12799;BME280;19250;42.646;26.980;2022-12-10T11:11:03;98159.00;;;20.89;100.00
12799;BME280;19250;42.646;26.980;2022-12-10T11:13:33;98163.75;;;21.43;100.00
12799;BME280;19250;42.646;26.980;2022-12-10T11:16:15;98165.06;;;20.34;100.00
12799;BME280;19250;42.646;26.980;2022-12-10T11:18:53;98152.97;;;19.39;100.00
12799;BME280;19250;42.646;26.980;2022-12-10T11:21:21;98150.50;;;19.84;100.00
12799;BME280;19250;42.646;26.980;2022-12-10T11:23:52;98141.53;;;20.35;100.00
12799;BME280;19250;42.646;26.980;2022-12-10T11:29:29;98146.94;;;19.95;100.00
12799;BME280;19250;42.646;26.980;2022-12-10T11:32:11;98138.03;;;20.51;100.00
12799;BME280;19250;42.646;26.980;2022-12-10T11:34:48;98147.91;;;20.57;100.00
12799;BME280;19250;42.646;26.980;2022-12-10T11:37:25;98084.56;;;20.01;100.00
12799;BME280;19250;42.646;26.980;2022-12-10T11:40:22;98129.16;;;19.47;100.00
12799;BME280;19250;42.646;26.980;2022-12-10T11:42:58;98130.28;;;19.75;100.00
12799;BME280;19250;42.646;26.980;2022-12-10T11:45:51;98113.75;;;19.99;100.00
12799;BME280;19250;42.646;26.980;2022-12-10T11:48:38;98115.41;;;20.57;100.00
12799;BME280;19250;42.646;26.980;2022-12-10T11:51:17;98112.22;;;21.43;100.00
12799;BME280;19250;42.646;26.980;2022-12-10T11:53:55;98129.53;;;22.24;100.00
12799;BME280;19250;42.646;26.980;2022-12-10T11:56:28;98132.44;;;22.17;100.00
12799;BME280;19250;42.646;26.980;2022-12-10T11:59:05;98131.16;;;21.82;100.00
12799;BME280;19250;42.646;26.980;2022-12-10T12:01:59;98121.28;;;23.26;92.64
12799;BME280;19250;42.646;26.980;2022-12-10T12:04:47;98126.31;;;23.44;91.35
12799;BME280;19250;42.646;26.980;2022-12-10T12:07:28;98127.72;;;25.01;77.45
12799;BME280;19250;42.646;26.980;2022-12-10T12:13:10;98120.16;;;21.71;100.00
12799;BME280;19250;42.646;26.980;2022-12-10T12:15:42;98119.16;;;22.43;96.22
12799;BME280;19250;42.646;26.980;2022-12-10T12:18:16;98118.78;;;22.34;95.92
12799;BME280;19250;42.646;26.980;2022-12-10T12:20:49;98112.72;;;23.12;91.02
12799;BME280;19250;42.646;26.980;2022-12-10T12:23:23;98125.97;;;22.99;89.17
12799;BME280;19250;42.646;26.980;2022-12-10T12:25:54;98125.09;;;21.75;100.00
12799;BME280;19250;42.646;26.980;2022-12-10T12:28:27;98119.25;;;22.26;97.50
12799;BME280;19250;42.646;26.980;2022-12-10T12:31:01;98116.66;;;21.93;100.00
12799;BME280;19250;42.646;26.980;2022-12-10T12:33:39;98113.25;;;23.41;89.33
12799;BME280;19250;42.646;26.980;2022-12-10T12:36:12;98100.28;;;24.20;81.19
12799;BME280;19250;42.646;26.980;2022-12-10T12:38:46;98117.47;;;23.27;87.37
12799;BME280;19250;42.646;26.980;2022-12-10T12:41:20;98111.88;;;23.07;89.71
12799;BME280;19250;42.646;26.980;2022-12-10T12:43:52;98116.81;;;23.52;87.81
12799;BME280;19250;42.646;26.980;2022-12-10T12:46:31;98115.72;;;22.26;96.00
12799;BME280;19250;42.646;26.980;2022-12-10T12:49:04;98112.00;;;22.10;95.28
12799;BME280;19250;42.646;26.980;2022-12-10T12:51:43;98111.53;;;22.66;93.06
12799;BME280;19250;42.646;26.980;2022-12-10T12:54:12;98099.63;;;22.19;95.38
12799;BME280;19250;42.646;26.980;2022-12-10T12:57:03;98094.50;;;21.57;100.00
12799;BME280;19250;42.646;26.980;2022-12-10T12:59:47;98090.13;;;21.56;100.00
12799;BME280;19250;42.646;26.980;2022-12-10T13:02:29;98089.50;;;21.49;100.00
12799;BME280;19250;42.646;26.980;2022-12-10T13:05:05;98094.56;;;22.06;96.79